createdAt,value
2018-09-09T00:01:29.516Z,86.09
2018-09-09T00:03:56.681Z,85.73
2018-09-09T00:06:23.981Z,88.25
2018-09-09T00:08:51.099Z,87.89
2018-09-09T00:11:18.712Z,87.67
2018-09-09T00:13:45.819Z,89.53
2018-09-09T00:16:12.937Z,91.65
2018-09-09T00:18:40.227Z,91.56
2018-09-09T00:21:07.543Z,90.63
2018-09-09T00:23:34.681Z,88.99
2018-09-09T00:26:01.778Z,88.61
2018-09-09T00:28:28.954Z,89.46
2018-09-09T00:30:56.082Z,89.94
2018-09-09T00:33:23.401Z,90.10
2018-09-09T00:35:50.575Z,90.26
2018-09-09T00:38:17.720Z,89.99
2018-09-09T00:40:44.910Z,90.67
2018-09-09T00:43:12.021Z,90.75
2018-09-09T00:45:39.267Z,91.41
2018-09-09T00:48:06.583Z,91.05
2018-09-09T00:50:39.543Z,90.70
2018-09-09T00:53:12.511Z,90.61
2018-09-09T00:55:39.722Z,90.64
2018-09-09T00:58:07.076Z,90.79
2018-09-09T01:00:39.884Z,92.14
2018-09-09T01:03:07.119Z,90.77
2018-09-09T01:05:34.224Z,88.87
2018-09-09T01:08:01.383Z,88.72
2018-09-09T01:10:28.572Z,87.57
2018-09-09T01:12:55.737Z,87.72
2018-09-09T01:15:24.312Z,88.54
2018-09-09T01:17:52.260Z,87.08
2018-09-09T01:20:19.567Z,86.86
2018-09-09T01:22:46.641Z,86.73
2018-09-09T01:25:13.924Z,85.84
2018-09-09T01:27:41.107Z,85.71
2018-09-09T01:30:08.442Z,84.90
2018-09-09T01:32:35.612Z,84.76
2018-09-09T01:35:03.137Z,85.24
2018-09-09T01:37:30.240Z,86.29
2018-09-09T01:39:57.429Z,85.65
2018-09-09T01:42:31.290Z,86.23
2018-09-09T01:44:58.532Z,86.07
2018-09-09T01:47:25.693Z,86.84
2018-09-09T01:49:53.203Z,90.28
2018-09-09T01:52:20.507Z,89.91
2018-09-09T01:54:47.665Z,89.51
2018-09-09T01:57:14.797Z,90.26
2018-09-09T01:59:41.966Z,92.93
2018-09-09T02:02:09.060Z,93.16
2018-09-09T02:04:36.233Z,91.91
2018-09-09T02:07:03.412Z,90.41
2018-09-09T02:09:30.540Z,91.05
2018-09-09T02:11:57.705Z,89.96
2018-09-09T02:14:24.860Z,88.71
2018-09-09T02:16:52.037Z,88.93
2018-09-09T02:19:19.439Z,88.88
2018-09-09T02:21:46.548Z,88.79
2018-09-09T02:24:13.764Z,90.67
2018-09-09T02:26:40.917Z,92.13
2018-09-09T02:29:08.097Z,91.36
2018-09-09T02:31:35.300Z,90.28
2018-09-09T02:34:02.396Z,90.75
2018-09-09T02:36:29.545Z,92.71
2018-09-09T02:38:56.781Z,92.53
2018-09-09T02:41:23.972Z,91.37
2018-09-09T02:43:51.279Z,90.22
2018-09-09T02:46:18.592Z,90.38
2018-09-09T02:48:45.705Z,90.16
2018-09-09T02:51:12.905Z,90.49
2018-09-09T02:53:40.061Z,89.92
2018-09-09T02:56:09.112Z,90.34
2018-09-09T02:58:36.265Z,90.21
2018-09-09T03:01:03.430Z,89.40
2018-09-09T03:03:30.563Z,89.56
2018-09-09T03:05:57.823Z,89.50
2018-09-09T03:08:24.946Z,88.83
2018-09-09T03:10:57.953Z,88.02
2018-09-09T03:13:25.121Z,88.39
2018-09-09T03:15:52.268Z,88.93
2018-09-09T03:18:20.340Z,89.29
2018-09-09T03:20:48.891Z,90.78
2018-09-09T03:23:16.052Z,89.56
2018-09-09T03:25:43.276Z,88.98
2018-09-09T03:28:10.511Z,88.63
2018-09-09T03:30:37.614Z,92.51
2018-09-09T03:33:04.928Z,93.46
2018-09-09T03:35:32.253Z,91.89
2018-09-09T03:37:59.413Z,91.35
2018-09-09T03:40:26.513Z,90.46
2018-09-09T03:42:53.718Z,90.37
2018-09-09T03:45:20.868Z,89.71
2018-09-09T03:47:48.205Z,89.79
2018-09-09T03:50:15.329Z,90.27
2018-09-09T03:52:42.504Z,90.75
2018-09-09T03:55:09.775Z,90.04
2018-09-09T03:57:36.861Z,92.07
2018-09-09T04:00:04.380Z,91.78
2018-09-09T04:02:31.740Z,92.90
2018-09-09T04:04:58.921Z,92.25
2018-09-09T04:07:26.063Z,91.86
2018-09-09T04:09:53.263Z,91.15
2018-09-09T04:12:20.340Z,90.80
2018-09-09T04:14:47.769Z,90.99
2018-09-09T04:17:14.929Z,90.43
2018-09-09T04:19:42.035Z,90.25
2018-09-09T04:22:09.281Z,89.38
2018-09-09T04:24:36.413Z,89.20
2018-09-09T04:27:03.612Z,89.11
2018-09-09T04:29:30.725Z,89.19
2018-09-09T04:31:57.832Z,89.97
2018-09-09T04:34:25.006Z,93.18
2018-09-09T04:36:52.184Z,91.04
2018-09-09T04:39:19.324Z,90.77
2018-09-09T04:41:46.517Z,90.64
2018-09-09T04:44:13.667Z,89.05
2018-09-09T04:46:40.828Z,89.32
2018-09-09T04:49:08.848Z,89.68
2018-09-09T04:51:36.073Z,91.01
2018-09-09T04:54:03.225Z,92.23
2018-09-09T04:56:30.681Z,92.89
2018-09-09T04:58:57.767Z,91.49
2018-09-09T05:01:24.912Z,91.49
2018-09-09T05:03:52.078Z,91.12
2018-09-09T05:06:19.248Z,92.27
2018-09-09T05:08:46.443Z,90.65
2018-09-09T05:11:13.917Z,92.92
2018-09-09T05:13:41.041Z,92.75
2018-09-09T05:16:08.234Z,90.96
2018-09-09T05:18:35.332Z,89.92
2018-09-09T05:21:02.512Z,89.83
2018-09-09T05:23:29.707Z,90.15
2018-09-09T05:25:56.871Z,91.20
2018-09-09T05:28:24.080Z,91.80
2018-09-09T05:30:51.240Z,92.53
2018-09-09T05:33:18.361Z,95.10
2018-09-09T05:35:45.566Z,94.16
2018-09-09T05:38:12.717Z,94.21
2018-09-09T05:40:39.884Z,94.30
2018-09-09T05:43:07.097Z,94.27
2018-09-09T05:45:34.253Z,94.48
2018-09-09T05:48:01.595Z,96.14
2018-09-09T05:50:28.818Z,96.09
2018-09-09T05:53:02.724Z,96.37
2018-09-09T05:55:29.949Z,95.81
2018-09-09T05:57:57.065Z,97.63
2018-09-09T06:00:24.226Z,96.42
2018-09-09T06:02:51.468Z,94.93
2018-09-09T06:05:18.633Z,94.19
2018-09-09T06:07:45.920Z,93.85
2018-09-09T06:10:13.029Z,92.68
2018-09-09T06:12:40.270Z,92.86
2018-09-09T06:15:07.445Z,92.80
2018-09-09T06:17:34.581Z,92.92
2018-09-09T06:20:01.839Z,92.45
2018-09-09T06:22:29.033Z,91.55
2018-09-09T06:24:56.659Z,91.44
2018-09-09T06:27:23.857Z,90.43
2018-09-09T06:29:51.096Z,90.02
2018-09-09T06:32:18.230Z,90.50
2018-09-09T06:34:45.401Z,90.67
2018-09-09T06:37:12.540Z,89.49
2018-09-09T06:39:39.718Z,89.95
2018-09-09T06:42:06.867Z,88.97
2018-09-09T06:44:34.048Z,88.42
2018-09-09T06:47:01.168Z,87.46
2018-09-09T06:49:28.324Z,86.35
2018-09-09T06:51:55.509Z,84.19
2018-09-09T06:54:22.616Z,83.20
2018-09-09T06:56:49.896Z,83.72
2018-09-09T06:59:17.078Z,83.32
2018-09-09T07:01:44.220Z,83.25
2018-09-09T07:04:11.368Z,84.34
2018-09-09T07:06:38.647Z,84.42
2018-09-09T07:09:07.022Z,83.52
2018-09-09T07:11:34.363Z,83.28
2018-09-09T07:14:01.421Z,82.13
2018-09-09T07:16:28.624Z,82.16
2018-09-09T07:18:55.931Z,82.15
2018-09-09T07:21:23.030Z,82.45
2018-09-09T07:23:50.202Z,81.55
2018-09-09T07:26:17.511Z,80.96
2018-09-09T07:28:44.711Z,79.98
2018-09-09T07:31:11.964Z,79.16
2018-09-09T07:33:39.201Z,80.41
2018-09-09T07:36:06.368Z,78.66
2018-09-09T07:38:33.536Z,77.79
2018-09-09T07:41:00.664Z,77.75
2018-09-09T07:43:27.812Z,79.03
2018-09-09T07:45:55.143Z,78.79
2018-09-09T07:48:22.329Z,77.62
2018-09-09T07:50:49.575Z,77.92
2018-09-09T07:53:16.682Z,78.47
2018-09-09T07:55:43.808Z,77.20
2018-09-09T07:58:11.025Z,78.13
2018-09-09T08:00:38.244Z,76.56
2018-09-09T08:03:05.498Z,76.86
2018-09-09T08:05:33.121Z,75.80
2018-09-09T08:08:00.265Z,75.59
2018-09-09T08:10:27.418Z,74.70
2018-09-09T08:12:54.743Z,74.68
2018-09-09T08:15:22.562Z,74.29
2018-09-09T08:17:49.748Z,73.87
2018-09-09T08:20:17.073Z,72.36
2018-09-09T08:22:44.232Z,72.66
2018-09-09T08:25:11.356Z,73.55
2018-09-09T08:27:38.696Z,72.35
2018-09-09T08:30:05.929Z,73.17
2018-09-09T08:32:33.165Z,71.96
2018-09-09T08:35:00.412Z,71.89
2018-09-09T08:37:27.687Z,71.76
2018-09-09T08:39:55.013Z,71.43
2018-09-09T08:42:22.292Z,71.51
2018-09-09T08:44:49.462Z,72.36
2018-09-09T08:47:16.677Z,72.55
2018-09-09T08:49:43.773Z,71.70
2018-09-09T08:52:10.949Z,72.34
2018-09-09T08:54:38.181Z,71.95
2018-09-09T08:57:05.385Z,71.12
2018-09-09T08:59:32.493Z,69.13
2018-09-09T09:01:59.670Z,69.83
2018-09-09T09:04:26.825Z,68.85
2018-09-09T09:06:54.589Z,68.34
2018-09-09T09:09:21.868Z,68.61
2018-09-09T09:11:49.065Z,67.68
2018-09-09T09:14:16.241Z,67.31
2018-09-09T09:16:43.437Z,68.04
2018-09-09T09:19:10.553Z,66.88
2018-09-09T09:21:37.773Z,67.14
2018-09-09T09:24:04.953Z,67.10
2018-09-09T09:26:32.096Z,66.56
2018-09-09T09:28:59.420Z,65.83
2018-09-09T09:31:26.622Z,63.34
2018-09-09T09:33:53.913Z,64.03
2018-09-09T09:36:21.218Z,64.34
2018-09-09T09:38:48.406Z,64.04
2018-09-09T09:41:15.625Z,63.21
2018-09-09T09:43:42.923Z,61.27
2018-09-09T09:46:10.077Z,61.22
2018-09-09T09:48:37.395Z,61.47
2018-09-09T09:51:04.565Z,61.72
2018-09-09T09:53:32.467Z,61.32
2018-09-09T09:55:59.580Z,59.99
2018-09-09T09:58:26.760Z,60.72
2018-09-09T10:01:00.955Z,62.06
2018-09-09T10:03:28.161Z,61.94
2018-09-09T10:05:55.301Z,59.27
2018-09-09T10:08:22.446Z,59.31
2018-09-09T10:10:50.365Z,60.12
2018-09-09T10:13:17.534Z,61.27
2018-09-09T10:15:44.734Z,61.92
2018-09-09T10:18:12.033Z,61.78
2018-09-09T10:20:39.184Z,61.98
2018-09-09T10:23:06.514Z,62.27
2018-09-09T10:25:33.798Z,61.07
2018-09-09T10:28:00.952Z,60.85
2018-09-09T10:30:28.197Z,60.87
2018-09-09T10:32:56.104Z,61.12
2018-09-09T10:35:23.760Z,61.44
2018-09-09T10:37:51.036Z,59.78
2018-09-09T10:40:18.394Z,59.75
2018-09-09T10:42:45.569Z,59.98
2018-09-09T10:45:12.705Z,60.51
2018-09-09T10:47:39.909Z,60.14
2018-09-09T10:50:07.136Z,61.15
2018-09-09T10:52:34.394Z,60.08
2018-09-09T10:55:01.615Z,61.26
2018-09-09T10:57:28.832Z,61.22
2018-09-09T10:59:56.045Z,60.89
2018-09-09T11:02:23.289Z,60.51
2018-09-09T11:04:50.540Z,59.21
2018-09-09T11:07:18.049Z,57.67
2018-09-09T11:09:45.142Z,58.47
2018-09-09T11:12:12.244Z,58.62
2018-09-09T11:14:39.400Z,59.24
2018-09-09T11:17:06.597Z,60.27
2018-09-09T11:19:33.768Z,59.00
2018-09-09T11:22:00.946Z,58.67
2018-09-09T11:24:28.241Z,59.47
2018-09-09T11:26:55.548Z,60.74
2018-09-09T11:29:22.729Z,57.62
2018-09-09T11:31:49.904Z,56.98
2018-09-09T11:34:17.157Z,55.79
2018-09-09T11:36:44.366Z,56.28
2018-09-09T11:39:11.473Z,56.57
2018-09-09T11:41:39.405Z,57.66
2018-09-09T11:44:06.709Z,55.91
2018-09-09T11:46:34.005Z,56.16
2018-09-09T11:49:01.869Z,54.40
2018-09-09T11:51:29.028Z,52.54
2018-09-09T11:53:56.549Z,49.89
2018-09-09T11:56:24.622Z,49.49
2018-09-09T11:58:51.848Z,48.28
2018-09-09T12:01:19.035Z,49.30
2018-09-09T12:03:46.262Z,50.01
2018-09-09T12:06:13.391Z,49.30
2018-09-09T12:08:40.631Z,49.36
2018-09-09T12:11:07.885Z,48.56
2018-09-09T12:13:35.082Z,48.34
2018-09-09T12:16:02.306Z,46.41
2018-09-09T12:18:29.557Z,46.78
2018-09-09T12:20:56.745Z,45.06
2018-09-09T12:23:24.179Z,44.22
2018-09-09T12:25:51.333Z,43.46
2018-09-09T12:28:18.553Z,43.75
2018-09-09T12:30:45.770Z,44.24
2018-09-09T12:33:12.945Z,45.02
2018-09-09T12:35:40.147Z,44.90
2018-09-09T12:38:07.455Z,45.72
2018-09-09T12:40:34.644Z,44.28
2018-09-09T12:43:07.718Z,45.80
2018-09-09T12:45:40.652Z,46.47
2018-09-09T12:48:13.650Z,48.08
2018-09-09T12:50:40.808Z,47.81
2018-09-09T12:53:08.122Z,48.70
2018-09-09T12:55:35.291Z,47.55
2018-09-09T12:58:02.470Z,47.56
2018-09-09T13:00:29.732Z,47.98
2018-09-09T13:02:56.846Z,49.13
2018-09-09T13:05:24.415Z,47.78
2018-09-09T13:07:51.624Z,46.15
2018-09-09T13:10:18.827Z,45.79
2018-09-09T13:12:52.950Z,46.39
2018-09-09T13:15:20.208Z,45.85
2018-09-09T13:17:47.381Z,46.01
2018-09-09T13:20:14.637Z,44.91
2018-09-09T13:22:41.872Z,45.88
2018-09-09T13:25:09.028Z,46.77
2018-09-09T13:27:36.356Z,46.58
2018-09-09T13:30:04.166Z,47.41
2018-09-09T13:32:31.498Z,47.54
2018-09-09T13:34:58.808Z,46.26
2018-09-09T13:37:26.042Z,46.81
2018-09-09T13:39:53.262Z,47.70
2018-09-09T13:42:20.689Z,45.78
2018-09-09T13:44:47.877Z,46.58
2018-09-09T13:47:15.163Z,46.51
2018-09-09T13:49:42.558Z,45.18
2018-09-09T13:52:09.771Z,46.46
2018-09-09T13:54:37.009Z,46.30
2018-09-09T13:57:04.246Z,46.13
2018-09-09T13:59:31.490Z,46.17
2018-09-09T14:01:58.918Z,45.91
2018-09-09T14:04:26.124Z,45.72
2018-09-09T14:06:53.426Z,47.32
2018-09-09T14:09:20.672Z,46.83
2018-09-09T14:11:47.878Z,45.92
2018-09-09T14:14:15.154Z,46.99
2018-09-09T14:16:42.490Z,45.27
2018-09-09T14:19:09.690Z,44.95
2018-09-09T14:21:36.969Z,43.97
2018-09-09T14:24:04.335Z,45.48
2018-09-09T14:26:31.572Z,43.75
2018-09-09T14:28:58.833Z,44.32
2018-09-09T14:31:26.106Z,42.70
2018-09-09T14:33:53.472Z,42.63
2018-09-09T14:36:20.739Z,42.40
2018-09-09T14:38:48.010Z,44.09
2018-09-09T14:41:15.222Z,42.99
2018-09-09T14:43:42.543Z,43.81
2018-09-09T14:46:09.979Z,44.76
2018-09-09T14:48:37.017Z,43.45
2018-09-09T14:51:04.444Z,41.88
2018-09-09T14:53:31.693Z,38.52
2018-09-09T14:55:58.848Z,38.24
2018-09-09T14:58:26.258Z,39.90
2018-09-09T15:00:53.410Z,38.98
2018-09-09T15:03:20.992Z,39.23
2018-09-09T15:05:48.296Z,40.77
2018-09-09T15:08:15.490Z,37.44
2018-09-09T15:10:42.710Z,36.39
2018-09-09T15:13:09.921Z,35.53
2018-09-09T15:15:37.077Z,36.42
2018-09-09T15:18:04.361Z,37.53
2018-09-09T15:20:31.520Z,38.66
2018-09-09T15:22:58.761Z,37.18
2018-09-09T15:25:25.975Z,36.61
2018-09-09T15:27:53.310Z,37.22
2018-09-09T15:30:20.576Z,36.36
2018-09-09T15:32:47.803Z,37.84
2018-09-09T15:35:15.029Z,37.58
2018-09-09T15:37:42.311Z,34.65
2018-09-09T15:40:09.673Z,32.60
2018-09-09T15:42:36.866Z,33.33
2018-09-09T15:45:05.415Z,35.30
2018-09-09T15:47:33.241Z,36.64
2018-09-09T15:50:00.501Z,38.30
2018-09-09T15:52:27.678Z,35.22
2018-09-09T15:54:55.002Z,36.50
2018-09-09T15:57:23.035Z,41.24
2018-09-09T15:59:50.227Z,42.35
2018-09-09T16:02:17.614Z,42.00
2018-09-09T16:04:44.789Z,47.91
2018-09-09T16:07:12.724Z,45.75
2018-09-09T16:09:40.009Z,46.80
2018-09-09T16:12:08.078Z,46.40
2018-09-09T16:14:35.293Z,50.12
2018-09-09T16:17:02.619Z,47.47
2018-09-09T16:19:29.861Z,47.81
2018-09-09T16:21:57.246Z,48.29
2018-09-09T16:24:24.574Z,46.79
2018-09-09T16:26:51.884Z,50.39
2018-09-09T16:29:19.092Z,47.70
2018-09-09T16:31:46.430Z,48.86
2018-09-09T16:34:13.794Z,48.48
2018-09-09T16:36:41.185Z,47.66
2018-09-09T16:39:08.623Z,49.40
2018-09-09T16:41:35.898Z,48.15
2018-09-09T16:44:03.278Z,49.16
2018-09-09T16:46:31.635Z,51.52
2018-09-09T16:48:58.896Z,51.90
2018-09-09T16:51:26.136Z,52.34
2018-09-09T16:53:53.450Z,53.55
2018-09-09T16:56:20.653Z,54.39
2018-09-09T16:58:47.909Z,52.05
2018-09-09T17:01:15.203Z,54.46
2018-09-09T17:03:43.032Z,55.64
2018-09-09T17:06:10.315Z,57.90
2018-09-09T17:08:38.569Z,58.88
2018-09-09T17:11:06.198Z,58.82
2018-09-09T17:13:33.569Z,58.71
2018-09-09T17:16:00.822Z,60.52
2018-09-09T17:18:28.061Z,61.43
2018-09-09T17:20:55.318Z,62.41
2018-09-09T17:23:22.578Z,63.59
2018-09-09T17:25:49.777Z,62.33
2018-09-09T17:28:17.058Z,62.33
2018-09-09T17:30:44.462Z,61.71
2018-09-09T17:33:11.708Z,59.98
2018-09-09T17:35:38.894Z,60.70
2018-09-09T17:38:06.891Z,59.21
2018-09-09T17:40:34.080Z,58.54
2018-09-09T17:43:01.751Z,59.64
2018-09-09T17:45:29.078Z,60.79
2018-09-09T17:47:56.343Z,61.56
2018-09-09T17:50:23.655Z,63.15
2018-09-09T17:52:51.072Z,64.20
2018-09-09T17:55:18.326Z,65.26
2018-09-09T17:57:45.612Z,65.61
2018-09-09T18:00:13.375Z,67.95
2018-09-09T18:02:40.574Z,68.50
2018-09-09T18:05:08.373Z,68.67
2018-09-09T18:07:35.672Z,67.24
2018-09-09T18:10:03.839Z,68.68
2018-09-09T18:12:31.082Z,69.30
2018-09-09T18:14:58.588Z,70.16
2018-09-09T18:17:25.824Z,69.56
2018-09-09T18:19:52.968Z,68.98
2018-09-09T18:22:20.853Z,69.49
2018-09-09T18:24:49.262Z,72.13
2018-09-09T18:27:16.510Z,71.46
2018-09-09T18:29:43.828Z,70.76
2018-09-09T18:32:11.149Z,71.50
2018-09-09T18:34:38.405Z,70.97
2018-09-09T18:37:05.824Z,73.06
2018-09-09T18:39:33.394Z,72.52
2018-09-09T18:42:00.665Z,71.20
2018-09-09T18:44:27.887Z,71.95
2018-09-09T18:46:55.136Z,73.34
2018-09-09T18:49:22.390Z,73.43
2018-09-09T18:51:49.752Z,73.02
2018-09-09T18:54:17.065Z,73.52
2018-09-09T18:56:44.273Z,74.12
2018-09-09T18:59:11.599Z,73.64
2018-09-09T19:01:38.856Z,76.05
2018-09-09T19:04:06.221Z,78.84
2018-09-09T19:06:33.525Z,78.56
2018-09-09T19:09:00.941Z,79.15
2018-09-09T19:11:28.251Z,78.55
2018-09-09T19:13:55.719Z,77.68
2018-09-09T19:16:23.002Z,77.14
2018-09-09T19:18:50.259Z,79.21
2018-09-09T19:21:17.665Z,78.47
2018-09-09T19:23:44.845Z,77.88
2018-09-09T19:26:12.083Z,77.02
2018-09-09T19:28:39.330Z,77.66
2018-09-09T19:31:07.447Z,78.32
2018-09-09T19:33:34.775Z,77.85
2018-09-09T19:36:02.130Z,78.19
2018-09-09T19:38:29.430Z,78.06
2018-09-09T19:40:56.714Z,78.43
2018-09-09T19:43:24.047Z,80.71
2018-09-09T19:45:51.887Z,81.81
2018-09-09T19:48:19.520Z,79.95
2018-09-09T19:50:46.881Z,79.80
2018-09-09T19:53:15.301Z,80.65
2018-09-09T19:55:42.560Z,80.91
2018-09-09T19:58:09.837Z,82.14
2018-09-09T20:00:37.690Z,84.88
2018-09-09T20:03:04.937Z,86.71
2018-09-09T20:05:32.497Z,85.89
2018-09-09T20:07:59.720Z,84.02
2018-09-09T20:10:26.885Z,83.19
2018-09-09T20:12:54.598Z,83.04
2018-09-09T20:15:21.936Z,83.24
2018-09-09T20:17:50.116Z,84.68
2018-09-09T20:20:17.343Z,83.53
2018-09-09T20:22:44.764Z,84.22
2018-09-09T20:25:12.026Z,84.32
2018-09-09T20:27:40.809Z,84.77
2018-09-09T20:30:08.171Z,87.02
2018-09-09T20:32:35.417Z,87.31
2018-09-09T20:35:02.864Z,87.50
2018-09-09T20:37:30.144Z,87.76
2018-09-09T20:39:57.348Z,85.46
2018-09-09T20:42:24.563Z,84.93
2018-09-09T20:44:51.872Z,84.34
2018-09-09T20:47:19.167Z,84.72
2018-09-09T20:49:46.483Z,84.58
2018-09-09T20:52:13.987Z,84.20
2018-09-09T20:54:41.147Z,83.74
2018-09-09T20:57:08.456Z,84.92
2018-09-09T20:59:35.696Z,85.54
2018-09-09T21:02:02.938Z,87.08
2018-09-09T21:04:30.187Z,86.66
2018-09-09T21:06:57.397Z,86.32
2018-09-09T21:09:24.595Z,88.51
2018-09-09T21:11:51.889Z,87.51
2018-09-09T21:14:19.159Z,86.13
2018-09-09T21:16:46.518Z,85.22
2018-09-09T21:19:13.761Z,85.31
2018-09-09T21:21:40.946Z,85.71
2018-09-09T21:24:08.343Z,87.06
2018-09-09T21:26:36.076Z,89.56
2018-09-09T21:29:03.254Z,89.32
2018-09-09T21:31:30.649Z,88.47
2018-09-09T21:33:57.908Z,87.31
2018-09-09T21:36:25.109Z,87.08
2018-09-09T21:38:52.352Z,86.84
2018-09-09T21:41:19.530Z,87.02
2018-09-09T21:43:46.689Z,87.10
2018-09-09T21:46:14.017Z,91.17
2018-09-09T21:48:41.220Z,90.39
2018-09-09T21:51:08.324Z,88.50
2018-09-09T21:53:35.677Z,88.10
2018-09-09T21:56:02.854Z,87.23
2018-09-09T21:58:30.132Z,89.35
2018-09-09T22:01:03.017Z,90.97
2018-09-09T22:03:30.771Z,93.29
2018-09-09T22:05:57.986Z,91.37
2018-09-09T22:08:26.173Z,89.57
2018-09-09T22:10:53.325Z,88.92
2018-09-09T22:13:20.572Z,88.41
2018-09-09T22:15:47.747Z,90.66
2018-09-09T22:18:14.965Z,92.64
2018-09-09T22:20:42.381Z,90.94
2018-09-09T22:23:09.561Z,90.32
2018-09-09T22:25:37.137Z,89.51
2018-09-09T22:28:04.718Z,88.41
2018-09-09T22:30:31.937Z,86.60
2018-09-09T22:32:59.328Z,86.50
2018-09-09T22:35:26.747Z,86.19
2018-09-09T22:37:53.928Z,86.91
2018-09-09T22:40:21.185Z,87.28
2018-09-09T22:42:48.329Z,89.43
2018-09-09T22:45:15.492Z,89.81
2018-09-09T22:47:42.920Z,90.01
2018-09-09T22:50:10.788Z,90.20
2018-09-09T22:52:37.935Z,90.02
2018-09-09T22:55:05.192Z,88.81
2018-09-09T22:57:32.678Z,89.35
2018-09-09T22:59:59.860Z,90.40
2018-09-09T23:02:27.173Z,89.19
2018-09-09T23:04:54.365Z,88.59
2018-09-09T23:07:21.567Z,88.49
2018-09-09T23:09:48.766Z,88.38
2018-09-09T23:12:15.935Z,91.80
2018-09-09T23:14:43.303Z,90.89
2018-09-09T23:17:10.564Z,89.76
2018-09-09T23:19:37.700Z,88.35
2018-09-09T23:22:04.892Z,89.45
2018-09-09T23:24:32.045Z,91.70
2018-09-09T23:26:59.189Z,91.96
2018-09-09T23:29:26.416Z,91.17
2018-09-09T23:31:53.666Z,94.15
2018-09-09T23:34:20.813Z,94.02
2018-09-09T23:36:48.128Z,92.13
2018-09-09T23:39:15.293Z,90.13
2018-09-09T23:41:42.537Z,89.40
2018-09-09T23:44:09.708Z,89.25
2018-09-09T23:46:37.622Z,89.16
2018-09-09T23:49:04.787Z,90.77
2018-09-09T23:51:32.017Z,92.41
2018-09-09T23:53:59.227Z,91.98
2018-09-09T23:56:26.428Z,92.86
2018-09-09T23:58:53.627Z,94.55
